Time;durP1;ratioP1;P1;durP2;ratioP2;P2;SDS_P1;SDS_P2;PMS_P1;PMS_P2;Temp;Humidity;BMP_temperature;BMP_pressure;BME280_temperature;BME280_humidity;BME280_pressure;Samples;Min_cycle;Max_cycle;Signal;HPM_P1;HPM_P2
2022/03/28 00:00:19;;;;;;;;;;;;;;;;;;2098166;28;19925;-43
2022/03/28 00:01:20;;;;;;;;;;;;;;;;;;2097770;28;20365;-43
2022/03/28 00:02:21;;;;;;;;;;;;;;;;;;2097726;28;19948;-43
2022/03/28 00:03:22;;;;;;;;;;;;;;;;;;2097890;28;20019;-43
2022/03/28 00:04:23;;;;;;;;;;;;;;;;;;2097614;28;20050;-47
2022/03/28 00:05:24;;;;;;;;;;;;;;;;;;2097737;28;19928;-48
2022/03/28 00:06:25;;;;;;;;;;;;;;;;;;2097488;28;19932;-44
2022/03/28 00:07:26;;;;;;;;;;;;;;;;;;2097884;28;19924;-43
2022/03/28 00:08:28;;;;;;;;;;;;;;;;;;2097647;28;19978;-47
2022/03/28 00:09:29;;;;;;;;;;;;;;;;;;2097430;28;20130;-48
2022/03/28 00:10:30;;;;;;;;;;;;;;;;;;2097655;28;19924;-48
2022/03/28 00:11:31;;;;;;;;;;;;;;;;;;2097910;28;19932;-43
2022/03/28 00:12:33;;;;;;;;;;;;;;;;;;2097634;28;19925;-43
2022/03/28 00:13:34;;;;;;;;;;;;;;;;;;2097857;28;19932;-43
2022/03/28 00:14:35;;;;;;;;;;;;;;;;;;2097591;28;20285;-43
2022/03/28 00:15:36;;;;;;;;;;;;;;;;;;2097492;28;19955;-42
2022/03/28 00:16:37;;;;;;;;;;;;;;;;;;2097335;28;19924;-43
2022/03/28 00:17:38;;;;;;;;;;;;;;;;;;2096573;28;19948;-43
2022/03/28 00:18:40;;;;;;;;;;;;;;;;;;2097060;28;19924;-43
2022/03/28 00:19:40;;;;;;;;;;;;;;;;;;2097644;28;19959;-43
2022/03/28 00:20:42;;;;;;;;;;;;;;;;;;2096907;28;20062;-44
2022/03/28 00:21:43;;;;;;;;;;;;;;;;;;2096509;28;20355;-43
2022/03/28 00:22:44;;;;;;;;;;;;;;;;;;2096720;28;19925;-43
2022/03/28 00:23:45;;;;;;;;;;;;;;;;;;2096720;28;20062;-43
2022/03/28 00:24:46;;;;;;;;;;;;;;;;;;2097598;28;19973;-43
2022/03/28 00:25:47;;;;;;;;;;;;;;;;;;2096450;28;19924;-43
2022/03/28 00:26:48;;;;;;;;;;;;;;;;;;2095389;28;19924;-43
2022/03/28 00:27:49;;;;;;;;;;;;;;;;;;2096196;28;19924;-44
2022/03/28 00:28:50;;;;;;;;;;;;;;;;;;2096594;28;20899;-43
2022/03/28 00:29:51;;;;;;;;;;;;;;;;;;2096379;28;19978;-44
2022/03/28 00:30:53;;;;;;;;;;;;;;;;;;2096805;28;19932;-47
2022/03/28 00:31:54;;;;;;;;;;;;;;;;;;2096464;28;19924;-47
2022/03/28 00:32:55;;;;;;;;;;;;;;;;;;2096311;28;19924;-48
2022/03/28 00:33:56;;;;;;;;;;;;;;;;;;2096659;28;19985;-48
2022/03/28 00:34:58;;;;;;;;;;;;;;;;;;2096464;28;19924;-50
2022/03/28 00:35:59;;;;;;;;;;;;;;;;;;2096821;28;19931;-48
2022/03/28 00:37:00;;;;;;;;;;;;;;;;;;2096774;28;19925;-43
2022/03/28 00:38:01;;;;;;;;;;;;;;;;;;2097762;28;20262;-43
2022/03/28 00:39:02;;;;;;;;;;;;;;;;;;2096316;28;19977;-43
2022/03/28 00:40:03;;;;;;;;;;;;;;;;;;2095895;28;19928;-50
2022/03/28 00:41:04;;;;;;;;;;;;;;;;;;2097126;28;19931;-49
2022/03/28 00:42:05;;;;;;;;;;;;;;;;;;2097712;28;19937;-48
2022/03/28 00:43:08;;;;;;;;;;;;;;;;;;2098057;28;19924;-49
2022/03/28 00:44:09;;;;;;;;;;;;;;;;;;2097557;28;20270;-48
2022/03/28 00:45:10;;;;;;;;;;;;;;;;;;2097644;28;20328;-47
2022/03/28 00:46:11;;;;;;;;;;;;;;;;;;2097954;28;19924;-43
2022/03/28 00:47:12;;;;;;;;;;;;;;;;;;2097651;28;19932;-44
2022/03/28 00:48:14;;;;;;;;;;;;;;;;;;2097795;28;20271;-47
2022/03/28 00:49:14;;;;;;;;;;;;;;;;;;2098110;28;19928;-49
2022/03/28 00:50:15;;;;;;;;;;;;;;;;;;2098227;28;19925;-48
2022/03/28 00:51:16;;;;;;;;;;;;;;;;;;2098173;28;20339;-49
2022/03/28 00:52:18;;;;;;;;;;;;;;;;;;2097869;28;19985;-47
2022/03/28 00:53:19;;;;;;;;;;;;;;;;;;2098276;28;20374;-50
2022/03/28 00:54:21;;;;;;;;;;;;;;;;;;2098490;28;19947;-48
2022/03/28 00:55:21;;;;;;;;;;;;;;;;;;2098810;28;20006;-43
2022/03/28 00:56:23;;;;;;;;;;;;;;;;;;2098014;28;19924;-44
2022/03/28 00:57:24;;;;;;;;;;;;;;;;;;2098006;28;20112;-44
2022/03/28 00:58:25;;;;;;;;;;;;;;;;;;2098140;28;19985;-43
2022/03/28 00:59:26;;;;;;;;;;;;;;;;;;2098275;28;19990;-47
2022/03/28 01:00:28;;;;;;;;;;;;;;;;;;2099100;28;19936;-44
2022/03/28 01:01:29;;;;;;;;;;;;;;;;;;2098304;28;20400;-44
2022/03/28 01:02:31;;;;;;;;;;;;;;;;;;2098124;28;19935;-45
2022/03/28 01:03:32;;;;;;;;;;;;;;;;;;2097718;28;19931;-44
2022/03/28 01:04:33;;;;;;;;;;;;;;;;;;2099120;28;20389;-43
2022/03/28 01:05:34;;;;;;;;;;;;;;;;;;2098148;28;19932;-43
2022/03/28 01:06:35;;;;;;;;;;;;;;;;;;2097588;28;19933;-43
2022/03/28 01:07:37;;;;;;;;;;;;;;;;;;2098052;28;19951;-44
2022/03/28 01:08:38;;;;;;;;;;;;;;;;;;2097810;28;20274;-45
2022/03/28 01:09:39;;;;;;;;;;;;;;;;;;2098923;28;19931;-43
2022/03/28 01:10:40;;;;;;;;;;;;;;;;;;2098311;28;19977;-43
2022/03/28 01:11:42;;;;;;;;;;;;;;;;;;2098122;28;19975;-44
2022/03/28 01:12:43;;;;;;;;;;;;;;;;;;2097933;28;19950;-45
2022/03/28 01:13:44;;;;;;;;;;;;;;;;;;2098117;28;20017;-49
2022/03/28 01:14:45;;;;;;;;;;;;;;;;;;2097840;28;21292;-48
2022/03/28 01:15:46;;;;;;;;;;;;;;;;;;2098157;28;19935;-47
2022/03/28 01:18:08;;;;;;;;;;;;;;;;;;2097877;28;20359;-47
2022/03/28 01:19:10;;;;;;;;;;;;;;;;;;2097688;28;19979;-51
2022/03/28 01:20:10;;;;;;;;;;;;;;;;;;2097797;28;20443;-47
2022/03/28 01:21:11;;;;;;;;;;;;;;;;;;2096812;28;19978;-43
2022/03/28 01:22:12;;;;;;;;;;;;;;;;;;2097816;28;19940;-44
2022/03/28 01:23:14;;;;;;;;;;;;;;;;;;2097790;28;19986;-43
2022/03/28 01:24:14;;;;;;;;;;;;;;;;;;2097655;28;19931;-44
2022/03/28 01:25:16;;;;;;;;;;;;;;;;;;2098093;28;19928;-42
2022/03/28 01:26:17;;;;;;;;;;;;;;;;;;2097606;28;19939;-44
2022/03/28 01:27:18;;;;;;;;;;;;;;;;;;2097982;28;19925;-43
2022/03/28 01:28:19;;;;;;;;;;;;;;;;;;2097463;28;20011;-47
2022/03/28 01:29:20;;;;;;;;;;;;;;;;;;2097694;28;20408;-47
2022/03/28 01:30:21;;;;;;;;;;;;;;;;;;2097729;28;19924;-49
2022/03/28 01:31:22;;;;;;;;;;;;;;;;;;2098094;28;19928;-46
2022/03/28 01:32:23;;;;;;;;;;;;;;;;;;2097324;28;20235;-48
2022/03/28 01:33:25;;;;;;;;;;;;;;;;;;2097758;28;19932;-48
2022/03/28 01:34:26;;;;;;;;;;;;;;;;;;2097749;28;19928;-44
2022/03/28 01:35:27;;;;;;;;;;;;;;;;;;2097709;28;20052;-43
2022/03/28 01:36:28;;;;;;;;;;;;;;;;;;2097569;28;19924;-43
2022/03/28 01:37:29;;;;;;;;;;;;;;;;;;2097620;28;20512;-43
2022/03/28 01:38:30;;;;;;;;;;;;;;;;;;2097775;28;20021;-44
2022/03/28 01:39:31;;;;;;;;;;;;;;;;;;2097941;28;19932;-43
2022/03/28 01:40:32;;;;;;;;;;;;;;;;;;2098222;28;19932;-43
2022/03/28 01:41:33;;;;;;;;;;;;;;;;;;2097475;28;20348;-43
2022/03/28 01:42:34;;;;;;;;;;;;;;;;;;2097531;28;19928;-43
2022/03/28 01:43:35;;;;;;;;;;;;;;;;;;2097840;28;20285;-43
2022/03/28 01:44:36;;;;;;;;;;;;;;;;;;2097628;28;19928;-42
2022/03/28 01:45:37;;;;;;;;;;;;;;;;;;2097454;28;19964;-43
2022/03/28 01:46:38;;;;;;;;;;;;;;;;;;2097679;28;19952;-47
2022/03/28 01:47:40;;;;;;;;;;;;;;;;;;2097754;28;20011;-50
2022/03/28 01:48:41;;;;;;;;;;;;;;;;;;2097556;28;19925;-47
2022/03/28 01:49:42;;;;;;;;;;;;;;;;;;2097585;28;19954;-48
2022/03/28 01:50:43;;;;;;;;;;;;;;;;;;2097608;28;20378;-47
2022/03/28 01:51:44;;;;;;;;;;;;;;;;;;2097489;28;19933;-47
2022/03/28 01:52:45;;;;;;;;;;;;;;;;;;2097647;28;20305;-48
2022/03/28 01:53:46;;;;;;;;;;;;;;;;;;2097578;28;19928;-48
2022/03/28 01:54:49;;;;;;;;;;;;;;;;;;2098535;28;20416;-48
2022/03/28 01:55:50;;;;;;;;;;;;;;;;;;2097904;28;19924;-47
2022/03/28 01:56:51;;;;;;;;;;;;;;;;;;2097644;28;19925;-47
2022/03/28 01:57:52;;;;;;;;;;;;;;;;;;2097775;28;20397;-47
2022/03/28 01:58:53;;;;;;;;;;;;;;;;;;2097254;28;20407;-48
2022/03/28 01:59:55;;;;;;;;;;;;;;;;;;2097500;28;19939;-48
2022/03/28 02:00:56;;;;;;;;;;;;;;;;;;2096905;28;19932;-47
2022/03/28 02:01:57;;;;;;;;;;;;;;;;;;2097460;28;19932;-48
2022/03/28 02:02:58;;;;;;;;;;;;;;;;;;2097616;28;20019;-48
2022/03/28 02:03:59;;;;;;;;;;;;;;;;;;2097545;28;19932;-47
2022/03/28 02:05:01;;;;;;;;;;;;;;;;;;2097595;28;20416;-48
2022/03/28 02:06:02;;;;;;;;;;;;;;;;;;2097712;28;19932;-48
2022/03/28 02:07:03;;;;;;;;;;;;;;;;;;2097507;28;20315;-51
2022/03/28 02:08:04;;;;;;;;;;;;;;;;;;2096354;28;20374;-47
2022/03/28 02:09:05;;;;;;;;;;;;;;;;;;2097886;28;20068;-48
2022/03/28 02:10:06;;;;;;;;;;;;;;;;;;2097991;28;19928;-47
2022/03/28 02:11:07;;;;;;;;;;;;;;;;;;2097755;28;19931;-47
2022/03/28 02:12:08;;;;;;;;;;;;;;;;;;2097577;28;19924;-47
2022/03/28 02:13:09;;;;;;;;;;;;;;;;;;2097535;28;19925;-47
2022/03/28 02:14:10;;;;;;;;;;;;;;;;;;2097319;28;19924;-47
2022/03/28 02:15:12;;;;;;;;;;;;;;;;;;2097488;28;20398;-47
2022/03/28 02:16:13;;;;;;;;;;;;;;;;;;2097686;28;19994;-48
2022/03/28 02:17:14;;;;;;;;;;;;;;;;;;2098334;28;19975;-47
2022/03/28 02:18:15;;;;;;;;;;;;;;;;;;2098005;28;19928;-48
2022/03/28 02:19:16;;;;;;;;;;;;;;;;;;2098082;28;19932;-47
2022/03/28 02:20:18;;;;;;;;;;;;;;;;;;2097576;28;19947;-44
2022/03/28 02:21:18;;;;;;;;;;;;;;;;;;2096105;28;19925;-43
2022/03/28 02:22:20;;;;;;;;;;;;;;;;;;2097086;28;21307;-43
2022/03/28 02:23:21;;;;;;;;;;;;;;;;;;2097305;28;19943;-43
2022/03/28 02:24:22;;;;;;;;;;;;;;;;;;2097226;28;19931;-44
2022/03/28 02:25:23;;;;;;;;;;;;;;;;;;2097373;28;19925;-43
2022/03/28 02:26:24;;;;;;;;;;;;;;;;;;2096830;28;19929;-45
2022/03/28 02:27:25;;;;;;;;;;;;;;;;;;2097463;28;19969;-44
2022/03/28 02:28:26;;;;;;;;;;;;;;;;;;2097226;28;19940;-43
2022/03/28 02:29:27;;;;;;;;;;;;;;;;;;2096951;28;20011;-43
2022/03/28 02:30:28;;;;;;;;;;;;;;;;;;2096150;28;20369;-44
2022/03/28 02:31:29;;;;;;;;;;;;;;;;;;2097674;28;19999;-44
2022/03/28 02:32:30;;;;;;;;;;;;;;;;;;2097103;28;19932;-43
2022/03/28 02:33:31;;;;;;;;;;;;;;;;;;2097256;28;20336;-43
2022/03/28 02:34:32;;;;;;;;;;;;;;;;;;2097196;28;19924;-44
2022/03/28 02:35:33;;;;;;;;;;;;;;;;;;2097280;28;20271;-44
2022/03/28 02:36:34;;;;;;;;;;;;;;;;;;2097437;28;19935;-43
2022/03/28 02:37:35;;;;;;;;;;;;;;;;;;2097272;28;19932;-43
2022/03/28 02:38:36;;;;;;;;;;;;;;;;;;2097389;28;19928;-42
2022/03/28 02:39:37;;;;;;;;;;;;;;;;;;2098412;28;19928;-44
2022/03/28 02:40:39;;;;;;;;;;;;;;;;;;2098327;28;19924;-43
2022/03/28 02:41:40;;;;;;;;;;;;;;;;;;2098034;28;19932;-43
2022/03/28 02:42:41;;;;;;;;;;;;;;;;;;2098447;28;19925;-43
2022/03/28 02:43:42;;;;;;;;;;;;;;;;;;2098232;28;19924;-43
2022/03/28 02:44:43;;;;;;;;;;;;;;;;;;2098504;28;19925;-43
2022/03/28 02:45:44;;;;;;;;;;;;;;;;;;2098535;28;19940;-42
2022/03/28 02:46:45;;;;;;;;;;;;;;;;;;2098413;28;19924;-43
2022/03/28 02:47:46;;;;;;;;;;;;;;;;;;2098125;28;19951;-43
2022/03/28 02:48:47;;;;;;;;;;;;;;;;;;2098308;28;20304;-43
2022/03/28 02:49:48;;;;;;;;;;;;;;;;;;2098126;28;20391;-43
2022/03/28 02:50:49;;;;;;;;;;;;;;;;;;2098436;28;19925;-43
2022/03/28 02:51:50;;;;;;;;;;;;;;;;;;2098224;28;19925;-43
2022/03/28 02:52:51;;;;;;;;;;;;;;;;;;2098224;28;19925;-43
2022/03/28 02:53:52;;;;;;;;;;;;;;;;;;2098167;28;19928;-43
2022/03/28 02:54:54;;;;;;;;;;;;;;;;;;2098447;28;19924;-44
2022/03/28 02:55:55;;;;;;;;;;;;;;;;;;2098040;28;19935;-43
2022/03/28 02:56:56;;;;;;;;;;;;;;;;;;2098112;28;19927;-48
2022/03/28 02:57:57;;;;;;;;;;;;;;;;;;2098256;28;20379;-48
2022/03/28 02:58:59;;;;;;;;;;;;;;;;;;2098086;28;20393;-47
2022/03/28 03:00:00;;;;;;;;;;;;;;;;;;2098183;28;19925;-48
2022/03/28 03:01:01;;;;;;;;;;;;;;;;;;2098272;28;19924;-47
2022/03/28 03:02:05;;;;;;;;;;;;;;;;;;2098729;28;19932;-43
2022/03/28 03:03:06;;;;;;;;;;;;;;;;;;2096459;28;19935;-44
2022/03/28 03:04:08;;;;;;;;;;;;;;;;;;2098112;28;20016;-43
2022/03/28 03:05:08;;;;;;;;;;;;;;;;;;2098452;28;19931;-43
2022/03/28 03:06:10;;;;;;;;;;;;;;;;;;2098243;28;19947;-47
2022/03/28 03:07:11;;;;;;;;;;;;;;;;;;2098405;28;19925;-48
2022/03/28 03:08:12;;;;;;;;;;;;;;;;;;2098422;28;19954;-47
2022/03/28 03:09:13;;;;;;;;;;;;;;;;;;2098186;28;19951;-47
2022/03/28 03:10:14;;;;;;;;;;;;;;;;;;2098121;28;19924;-46
2022/03/28 03:11:15;;;;;;;;;;;;;;;;;;2098234;28;19925;-47
2022/03/28 03:12:16;;;;;;;;;;;;;;;;;;2097254;28;19973;-47
2022/03/28 03:13:17;;;;;;;;;;;;;;;;;;2097906;28;19924;-50
2022/03/28 03:14:18;;;;;;;;;;;;;;;;;;2098149;28;19925;-48
2022/03/28 03:15:19;;;;;;;;;;;;;;;;;;2098162;28;19925;-47
2022/03/28 03:16:20;;;;;;;;;;;;;;;;;;2098101;28;19924;-47
2022/03/28 03:17:21;;;;;;;;;;;;;;;;;;2098147;28;20004;-47
2022/03/28 03:18:23;;;;;;;;;;;;;;;;;;2098211;28;20289;-47
2022/03/28 03:19:24;;;;;;;;;;;;;;;;;;2098239;28;19940;-48
2022/03/28 03:20:25;;;;;;;;;;;;;;;;;;2098054;28;20291;-47
2022/03/28 03:21:26;;;;;;;;;;;;;;;;;;2098178;28;20270;-48
2022/03/28 03:22:27;;;;;;;;;;;;;;;;;;2098586;28;19930;-48
2022/03/28 03:23:28;;;;;;;;;;;;;;;;;;2098011;28;19924;-49
2022/03/28 03:24:30;;;;;;;;;;;;;;;;;;2098280;28;20066;-47
2022/03/28 03:25:30;;;;;;;;;;;;;;;;;;2097940;28;19932;-47
2022/03/28 03:26:32;;;;;;;;;;;;;;;;;;2098040;28;19924;-47
2022/03/28 03:27:33;;;;;;;;;;;;;;;;;;2098206;28;20057;-48
2022/03/28 03:28:34;;;;;;;;;;;;;;;;;;2098107;28;19932;-47
2022/03/28 03:29:35;;;;;;;;;;;;;;;;;;2098024;28;19983;-47
2022/03/28 03:30:36;;;;;;;;;;;;;;;;;;2097974;28;20338;-47
2022/03/28 03:31:37;;;;;;;;;;;;;;;;;;2098063;28;20007;-47
2022/03/28 03:32:38;;;;;;;;;;;;;;;;;;2097726;28;19964;-47
2022/03/28 03:33:39;;;;;;;;;;;;;;;;;;2098193;28;19924;-47
2022/03/28 03:34:40;;;;;;;;;;;;;;;;;;2098080;28;19925;-47
2022/03/28 03:35:42;;;;;;;;;;;;;;;;;;2098288;28;19932;-47
2022/03/28 03:36:43;;;;;;;;;;;;;;;;;;2098143;28;19924;-48
2022/03/28 03:37:44;;;;;;;;;;;;;;;;;;2098059;28;19931;-47
2022/03/28 03:38:45;;;;;;;;;;;;;;;;;;2097991;28;19940;-46
2022/03/28 03:39:46;;;;;;;;;;;;;;;;;;2098261;28;19925;-43
2022/03/28 03:40:47;;;;;;;;;;;;;;;;;;2098208;28;19928;-44
2022/03/28 03:41:48;;;;;;;;;;;;;;;;;;2097941;28;19931;-43
2022/03/28 03:42:49;;;;;;;;;;;;;;;;;;2098334;28;20023;-43
2022/03/28 03:43:50;;;;;;;;;;;;;;;;;;2097915;28;20374;-43
2022/03/28 03:44:51;;;;;;;;;;;;;;;;;;2098294;28;19924;-42
2022/03/28 03:45:52;;;;;;;;;;;;;;;;;;2098251;28;19929;-44
2022/03/28 03:46:53;;;;;;;;;;;;;;;;;;2098297;28;19928;-44
2022/03/28 03:47:54;;;;;;;;;;;;;;;;;;2097975;28;19924;-43
2022/03/28 03:48:55;;;;;;;;;;;;;;;;;;2098179;28;19968;-48
2022/03/28 03:49:56;;;;;;;;;;;;;;;;;;2097767;28;19928;-43
2022/03/28 03:50:57;;;;;;;;;;;;;;;;;;2097923;28;19936;-44
2022/03/28 03:51:58;;;;;;;;;;;;;;;;;;2097879;28;19974;-43
2022/03/28 03:52:59;;;;;;;;;;;;;;;;;;2097902;28;19974;-43
2022/03/28 03:54:00;;;;;;;;;;;;;;;;;;2098212;28;19925;-48
2022/03/28 03:55:01;;;;;;;;;;;;;;;;;;2097938;28;19924;-48
2022/03/28 03:56:03;;;;;;;;;;;;;;;;;;2098063;28;19924;-49
2022/03/28 03:57:04;;;;;;;;;;;;;;;;;;2097835;28;19924;-49
2022/03/28 03:58:05;;;;;;;;;;;;;;;;;;2098013;28;19931;-47
2022/03/28 03:59:06;;;;;;;;;;;;;;;;;;2097719;28;19935;-48
2022/03/28 04:00:08;;;;;;;;;;;;;;;;;;2097839;28;19924;-48
2022/03/28 04:01:10;;;;;;;;;;;;;;;;;;2098167;28;19929;-43
2022/03/28 04:02:11;;;;;;;;;;;;;;;;;;2097869;28;19925;-43
2022/03/28 04:03:12;;;;;;;;;;;;;;;;;;2098179;28;20305;-47
2022/03/28 04:04:13;;;;;;;;;;;;;;;;;;2097865;28;20491;-48
2022/03/28 04:05:15;;;;;;;;;;;;;;;;;;2098149;28;19932;-47
2022/03/28 04:06:16;;;;;;;;;;;;;;;;;;2098049;28;19925;-47
2022/03/28 04:07:17;;;;;;;;;;;;;;;;;;2097928;28;19951;-47
2022/03/28 04:08:18;;;;;;;;;;;;;;;;;;2097729;28;19939;-47
2022/03/28 04:09:19;;;;;;;;;;;;;;;;;;2097923;28;19925;-47
2022/03/28 04:10:22;;;;;;;;;;;;;;;;;;2098018;28;20047;-44
2022/03/28 04:11:23;;;;;;;;;;;;;;;;;;2098242;28;19925;-43
2022/03/28 04:12:24;;;;;;;;;;;;;;;;;;2098040;28;19932;-43
2022/03/28 04:13:25;;;;;;;;;;;;;;;;;;2097742;28;19977;-43
2022/03/28 04:14:26;;;;;;;;;;;;;;;;;;2098534;28;19929;-49
2022/03/28 04:15:27;;;;;;;;;;;;;;;;;;2098045;28;20438;-43
2022/03/28 04:16:28;;;;;;;;;;;;;;;;;;2097931;28;20132;-44
2022/03/28 04:17:29;;;;;;;;;;;;;;;;;;2098151;28;19925;-44
2022/03/28 04:18:31;;;;;;;;;;;;;;;;;;2098079;28;19935;-47
2022/03/28 04:19:32;;;;;;;;;;;;;;;;;;2097800;28;19924;-47
2022/03/28 04:20:33;;;;;;;;;;;;;;;;;;2097885;28;19956;-48
2022/03/28 04:21:34;;;;;;;;;;;;;;;;;;2097534;28;19932;-48
2022/03/28 04:22:35;;;;;;;;;;;;;;;;;;2097952;28;19924;-48
2022/03/28 04:23:36;;;;;;;;;;;;;;;;;;2097443;28;20282;-43
2022/03/28 04:24:37;;;;;;;;;;;;;;;;;;2097845;28;19928;-44
2022/03/28 04:25:38;;;;;;;;;;;;;;;;;;2098070;28;19925;-48
2022/03/28 04:26:39;;;;;;;;;;;;;;;;;;2097816;28;19947;-44
2022/03/28 04:27:40;;;;;;;;;;;;;;;;;;2097196;28;20366;-44
2022/03/28 04:28:42;;;;;;;;;;;;;;;;;;2097786;28;20437;-44
2022/03/28 04:29:43;;;;;;;;;;;;;;;;;;2097998;28;19931;-48
2022/03/28 04:30:44;;;;;;;;;;;;;;;;;;2097748;28;19931;-47
2022/03/28 04:31:45;;;;;;;;;;;;;;;;;;2097629;28;20382;-47
2022/03/28 04:32:46;;;;;;;;;;;;;;;;;;2097412;28;19924;-49
2022/03/28 04:33:47;;;;;;;;;;;;;;;;;;2097634;28;20438;-47
2022/03/28 04:34:52;;;;;;;;;;;;;;;;;;2097771;28;19925;-47
2022/03/28 04:35:53;;;;;;;;;;;;;;;;;;2097552;28;19929;-47
2022/03/28 04:36:54;;;;;;;;;;;;;;;;;;2097955;28;20443;-47
2022/03/28 04:37:55;;;;;;;;;;;;;;;;;;2097420;28;19982;-44
2022/03/28 04:38:57;;;;;;;;;;;;;;;;;;2097621;28;20218;-43
2022/03/28 04:39:58;;;;;;;;;;;;;;;;;;2097884;28;19924;-44
2022/03/28 04:40:59;;;;;;;;;;;;;;;;;;2097695;28;20329;-44
2022/03/28 04:42:00;;;;;;;;;;;;;;;;;;2097569;28;19924;-44
2022/03/28 04:43:01;;;;;;;;;;;;;;;;;;2097937;28;19924;-48
2022/03/28 04:44:02;;;;;;;;;;;;;;;;;;2097960;28;19931;-44
2022/03/28 04:45:03;;;;;;;;;;;;;;;;;;2097915;28;19931;-49
2022/03/28 04:46:04;;;;;;;;;;;;;;;;;;2097594;28;19924;-47
2022/03/28 04:47:05;;;;;;;;;;;;;;;;;;2097584;28;19959;-48
2022/03/28 04:48:06;;;;;;;;;;;;;;;;;;2097806;28;19931;-48
2022/03/28 04:49:10;;;;;;;;;;;;;;;;;;2097446;28;20374;-49
2022/03/28 04:50:11;;;;;;;;;;;;;;;;;;2097729;28;19936;-47
2022/03/28 04:51:12;;;;;;;;;;;;;;;;;;2097633;28;19978;-48
2022/03/28 04:52:13;;;;;;;;;;;;;;;;;;2097643;28;20005;-48
2022/03/28 04:53:16;;;;;;;;;;;;;;;;;;2097575;28;20279;-50
2022/03/28 04:54:17;;;;;;;;;;;;;;;;;;2097667;28;19931;-50
2022/03/28 04:55:19;;;;;;;;;;;;;;;;;;2097119;28;19924;-48
2022/03/28 04:56:20;;;;;;;;;;;;;;;;;;2097661;28;19932;-47
2022/03/28 04:57:21;;;;;;;;;;;;;;;;;;2097891;28;20384;-43
2022/03/28 04:58:23;;;;;;;;;;;;;;;;;;2097680;28;20335;-43
2022/03/28 04:59:25;;;;;;;;;;;;;;;;;;2097798;28;19928;-46
2022/03/28 05:00:26;;;;;;;;;;;;;;;;;;2097617;28;19931;-48
2022/03/28 05:01:27;;;;;;;;;;;;;;;;;;2097211;28;19925;-48
2022/03/28 05:02:29;;;;;;;;;;;;;;;;;;2097701;28;19931;-48
2022/03/28 05:03:30;;;;;;;;;;;;;;;;;;2097680;28;19924;-47
2022/03/28 05:04:31;;;;;;;;;;;;;;;;;;2097848;28;19925;-49
2022/03/28 05:05:32;;;;;;;;;;;;;;;;;;2097640;28;19928;-47
2022/03/28 05:06:33;;;;;;;;;;;;;;;;;;2097384;28;19928;-51
2022/03/28 05:07:35;;;;;;;;;;;;;;;;;;2097483;28;19947;-51
2022/03/28 05:08:37;;;;;;;;;;;;;;;;;;2097687;28;19936;-47
2022/03/28 05:09:38;;;;;;;;;;;;;;;;;;2097391;28;20382;-49
2022/03/28 05:10:40;;;;;;;;;;;;;;;;;;2097703;28;19924;-43
2022/03/28 05:11:41;;;;;;;;;;;;;;;;;;2097424;28;20374;-45
2022/03/28 05:12:43;;;;;;;;;;;;;;;;;;2096898;28;19974;-44
2022/03/28 05:13:43;;;;;;;;;;;;;;;;;;2096964;28;19943;-44
2022/03/28 05:14:45;;;;;;;;;;;;;;;;;;2097899;28;20031;-48
2022/03/28 05:15:46;;;;;;;;;;;;;;;;;;2096097;28;19925;-43
2022/03/28 05:16:47;;;;;;;;;;;;;;;;;;2096025;28;20347;-44
2022/03/28 05:17:49;;;;;;;;;;;;;;;;;;2096159;28;19932;-44
2022/03/28 05:18:50;;;;;;;;;;;;;;;;;;2096321;28;20409;-44
2022/03/28 05:19:51;;;;;;;;;;;;;;;;;;2096753;28;19932;-49
2022/03/28 05:20:52;;;;;;;;;;;;;;;;;;2097455;28;19925;-47
2022/03/28 05:21:53;;;;;;;;;;;;;;;;;;2097292;28;19928;-48
2022/03/28 05:22:54;;;;;;;;;;;;;;;;;;2097481;28;19967;-47
2022/03/28 05:23:55;;;;;;;;;;;;;;;;;;2097548;28;19928;-47
2022/03/28 05:24:56;;;;;;;;;;;;;;;;;;2097263;28;19931;-47
2022/03/28 05:25:57;;;;;;;;;;;;;;;;;;2097466;28;20017;-48
2022/03/28 05:26:58;;;;;;;;;;;;;;;;;;2097499;28;19924;-47
2022/03/28 05:27:59;;;;;;;;;;;;;;;;;;2097351;28;19971;-48
2022/03/28 05:29:00;;;;;;;;;;;;;;;;;;2097601;28;20500;-47
2022/03/28 05:30:02;;;;;;;;;;;;;;;;;;2097679;28;19929;-47
2022/03/28 05:31:02;;;;;;;;;;;;;;;;;;2097499;28;19925;-48
2022/03/28 05:32:04;;;;;;;;;;;;;;;;;;2097861;28;19924;-47
2022/03/28 05:33:07;;;;;;;;;;;;;;;;;;2097363;28;19975;-44
2022/03/28 05:34:08;;;;;;;;;;;;;;;;;;2097572;28;19928;-44
2022/03/28 05:35:10;;;;;;;;;;;;;;;;;;2097530;28;19924;-44
2022/03/28 05:36:11;;;;;;;;;;;;;;;;;;2098206;28;19924;-43
2022/03/28 05:37:12;;;;;;;;;;;;;;;;;;2098947;28;19929;-43
2022/03/28 05:38:13;;;;;;;;;;;;;;;;;;2098913;28;19928;-44
2022/03/28 05:39:14;;;;;;;;;;;;;;;;;;2098956;28;19924;-43
2022/03/28 05:40:16;;;;;;;;;;;;;;;;;;2098794;28;19925;-43
2022/03/28 05:41:17;;;;;;;;;;;;;;;;;;2099116;28;19951;-47
2022/03/28 05:42:18;;;;;;;;;;;;;;;;;;2099165;28;19924;-49
2022/03/28 05:43:19;;;;;;;;;;;;;;;;;;2098665;28;19924;-47
2022/03/28 05:44:20;;;;;;;;;;;;;;;;;;2098391;28;19924;-48
2022/03/28 05:45:21;;;;;;;;;;;;;;;;;;2098825;28;19928;-47
2022/03/28 05:46:22;;;;;;;;;;;;;;;;;;2098656;28;19924;-47
2022/03/28 05:47:26;;;;;;;;;;;;;;;;;;2098581;28;20262;-50
2022/03/28 05:48:27;;;;;;;;;;;;;;;;;;2099077;28;19974;-43
2022/03/28 05:49:28;;;;;;;;;;;;;;;;;;2098732;28;19924;-47
2022/03/28 05:50:30;;;;;;;;;;;;;;;;;;2098637;28;19978;-47
2022/03/28 05:51:31;;;;;;;;;;;;;;;;;;2098511;28;20398;-47
2022/03/28 05:52:32;;;;;;;;;;;;;;;;;;2098988;28;19932;-43
2022/03/28 05:53:33;;;;;;;;;;;;;;;;;;2098749;28;20328;-43
2022/03/28 05:54:34;;;;;;;;;;;;;;;;;;2098651;28;19924;-43
2022/03/28 05:55:35;;;;;;;;;;;;;;;;;;2098609;28;19931;-43
2022/03/28 05:56:36;;;;;;;;;;;;;;;;;;2098509;28;20313;-43
2022/03/28 05:57:37;;;;;;;;;;;;;;;;;;2099267;28;19960;-47
2022/03/28 05:58:38;;;;;;;;;;;;;;;;;;2098682;28;19924;-46
2022/03/28 05:59:39;;;;;;;;;;;;;;;;;;2098838;28;19931;-48
2022/03/28 06:00:40;;;;;;;;;;;;;;;;;;2098618;28;19925;-48
2022/03/28 06:01:42;;;;;;;;;;;;;;;;;;2098853;28;19924;-43
2022/03/28 06:02:44;;;;;;;;;;;;;;;;;;2098572;28;19939;-44
2022/03/28 06:03:45;;;;;;;;;;;;;;;;;;2098837;28;19932;-43
2022/03/28 06:04:47;;;;;;;;;;;;;;;;;;2098551;28;19924;-44
2022/03/28 06:05:48;;;;;;;;;;;;;;;;;;2098657;28;19928;-44
2022/03/28 06:06:49;;;;;;;;;;;;;;;;;;2098819;28;19936;-43
2022/03/28 06:07:50;;;;;;;;;;;;;;;;;;2097894;28;19925;-43
2022/03/28 06:08:52;;;;;;;;;;;;;;;;;;2098737;28;19988;-48
2022/03/28 06:09:54;;;;;;;;;;;;;;;;;;2098472;28;19951;-48
2022/03/28 06:10:55;;;;;;;;;;;;;;;;;;2098741;28;20038;-48
2022/03/28 06:11:56;;;;;;;;;;;;;;;;;;2098448;28;19947;-48
2022/03/28 06:12:58;;;;;;;;;;;;;;;;;;2098511;28;19928;-47
2022/03/28 06:13:59;;;;;;;;;;;;;;;;;;2098437;28;19932;-47
2022/03/28 06:15:01;;;;;;;;;;;;;;;;;;2098698;28;19925;-47
2022/03/28 06:16:02;;;;;;;;;;;;;;;;;;2098518;28;19925;-47
2022/03/28 06:17:03;;;;;;;;;;;;;;;;;;2098704;28;19924;-47
2022/03/28 06:18:05;;;;;;;;;;;;;;;;;;2098755;28;20408;-43
2022/03/28 06:19:06;;;;;;;;;;;;;;;;;;2098752;28;19931;-44
2022/03/28 06:20:08;;;;;;;;;;;;;;;;;;2099050;28;20326;-49
2022/03/28 06:21:09;;;;;;;;;;;;;;;;;;2098430;28;19925;-49
2022/03/28 06:22:10;;;;;;;;;;;;;;;;;;2098869;28;20260;-49
2022/03/28 06:23:12;;;;;;;;;;;;;;;;;;2097712;28;20329;-44
2022/03/28 06:24:13;;;;;;;;;;;;;;;;;;2098427;28;19977;-44
2022/03/28 06:25:16;;;;;;;;;;;;;;;;;;2098283;28;19931;-44
2022/03/28 06:26:33;;;;;;;;;;;;;;;;;;2098472;28;19924;-48
2022/03/28 06:27:34;;;;;;;;;;;;;;;;;;2098432;28;19929;-49
2022/03/28 06:28:36;;;;;;;;;;;;;;;;;;2098729;28;19925;-43
2022/03/28 06:29:37;;;;;;;;;;;;;;;;;;2098353;28;20424;-42
2022/03/28 06:30:39;;;;;;;;;;;;;;;;;;2098562;28;19943;-43
2022/03/28 06:31:40;;;;;;;;;;;;;;;;;;2098448;28;20018;-43
2022/03/28 06:32:45;;;;;;;;;;;;;;;;;;2098145;28;19938;-43
2022/03/28 06:33:47;;;;;;;;;;;;;;;;;;2098770;28;19924;-47
2022/03/28 06:34:50;;;;;;;;;;;;;;;;;;2098514;28;19924;-46
2022/03/28 06:35:53;;;;;;;;;;;;;;;;;;2098580;28;19949;-43
2022/03/28 06:36:54;;;;;;;;;;;;;;;;;;2098106;28;19924;-43
2022/03/28 06:37:56;;;;;;;;;;;;;;;;;;2098637;28;19928;-46
2022/03/28 06:38:58;;;;;;;;;;;;;;;;;;2098507;28;19929;-43
2022/03/28 06:39:59;;;;;;;;;;;;;;;;;;2098511;28;20320;-43
2022/03/28 06:41:01;;;;;;;;;;;;;;;;;;2098357;28;19930;-43
2022/03/28 06:42:02;;;;;;;;;;;;;;;;;;2098417;28;20346;-44
2022/03/28 06:43:04;;;;;;;;;;;;;;;;;;2098622;28;20019;-43
2022/03/28 06:44:07;;;;;;;;;;;;;;;;;;2098174;28;19925;-43
2022/03/28 06:45:10;;;;;;;;;;;;;;;;;;2098390;28;20407;-43
2022/03/28 06:46:11;;;;;;;;;;;;;;;;;;2098502;28;19928;-45
2022/03/28 06:47:13;;;;;;;;;;;;;;;;;;2098490;28;19924;-43
2022/03/28 06:48:14;;;;;;;;;;;;;;;;;;2098226;28;20023;-43
2022/03/28 06:49:36;;;;;;;;;;;;;;;;;;2098143;28;19931;-43
2022/03/28 06:50:37;;;;;;;;;;;;;;;;;;2098222;28;20015;-43
2022/03/28 06:51:39;;;;;;;;;;;;;;;;;;2098391;28;20362;-43
2022/03/28 06:52:40;;;;;;;;;;;;;;;;;;2098193;28;19924;-43
2022/03/28 06:53:42;;;;;;;;;;;;;;;;;;2098360;28;19932;-44
2022/03/28 06:54:44;;;;;;;;;;;;;;;;;;2098193;28;19924;-49
2022/03/28 06:55:46;;;;;;;;;;;;;;;;;;2098497;28;20057;-48
2022/03/28 06:56:47;;;;;;;;;;;;;;;;;;2098338;28;20454;-48
2022/03/28 06:57:49;;;;;;;;;;;;;;;;;;2098540;28;20007;-48
2022/03/28 06:58:50;;;;;;;;;;;;;;;;;;2098458;28;19928;-50
2022/03/28 06:59:52;;;;;;;;;;;;;;;;;;2098140;28;20028;-50